Churchill Airport
CYYQ : now visible

Airfield :











YOU CAN JOIN US ON...

 
LOGIN :

Register | Disclaimer

   EN    FR    IT 

 









Legend :    VFR   Marginal VFR   IFR   Intensive IFR   Very Intensive IFR
Visi :
Ceiling :
>= 8 km
>= 3000ft
5 to 8 km
1000 to 3000 ft
1500m to 5 km
500 to 1000 ft
800 to 1500m
200 to 500 ft
< 800m
< 200 ft
Symbols :   Thunderstorms  Fog  Heavy snow  Heavy precipitations  Wind > 20 kt






- Airport Elevation : 94 ft
- IATA code : YYQ


CYYQ - Churchill

CURRENT METAR :
  • 021500Z 31014G20KT 15SM IC DRSN SKC M36/M40 A3014 RMK SLP213

EXPIRED METARs :
  • 021400Z 31015G22KT 10SM IC DRSN SKC M36/M41 A3013 RMK SLP211
  • 021300Z 32018G24KT 8SM IC DRSN SKC M36/M41 A3011 RMK SLP204

TAF TAF CYYQ
Valid from the 02 at 12:00 until the 03 at 12:00 UTC


021140Z 0212/0312 31015G25KT 4SM IC BLSN SKC
TEMPO 0212/0218 6SM IC
BECMG 0213/0215 32010G30KT
FM021800 32020G30KT P6SM SKC
TEMPO 0218/0222 5SM IC BLSN
BECMG 0220/0222 31015G25KT
FM022200 31015G25KT P6SM SKC
TEMPO 0222/0306 6SM IC BLSN
BECMG 0304/0306 26010KT
FM030600 26010KT P6SM FEW120 RMK NXT FCST BY 021800Z
CZWG FIR / North America



MET'MAP, your aeronautical weather chart ! - Copyright ORBIFLY December 2007 - Disclaimer

ORBIFLY MET'MAP TEAM :

Programming & Development : Alexandra Zaïnal
Original concept : Baudouin d'Aumeries
Technical & hardware support : Manuel Goepfert
Assistance : Marc-Olivier Méhu




SOURCES & CREDITS :

   NOAA       Earth
Advisory